SAME/MDZ METAR and TAF weather

Enter ICAO airport designator
Station Type Date Time Source
SAME METAR 2018/12/10 01:00 UTC NOAA

SAME 100100Z 27003KT CAVOK 25/11 Q1012


Station Type Date Time Source
SAME Decoded METAR 2018/12/10 01:00 UTC NOAA

Mendoza Aerodrome, Argentina (SAME) 32-50S 068-47W 704M
Dec 09, 2018 - 08:00 PM EST / 2018.12.10 0100 UTC
Wind: from the W (270 degrees) at 3 MPH (3 KT):0
Visibility: greater than 7 mile(s):0
Temperature: 77 F (25 C)
Dew Point: 51 F (11 C)
Relative Humidity: 41%
Pressure (altimeter): 29.88 in. Hg (1012 hPa)
ob: SAME 100100Z 27003KT CAVOK 25/11 Q1012
cycle: 1

Station Type Date Time Source
SAME TAF 2018/12/10 00:00 UTC NOAA

TAF SAME 092300Z 1000/1024 05005KT 9999 FEW040 TX32/1020Z TN17/1010Z


Example: see airport list